Time;durP1;ratioP1;P1;durP2;ratioP2;P2;SDS_P1;SDS_P2;PMS_P1;PMS_P2;Temp;Humidity;BMP_temperature;BMP_pressure;BME280_temperature;BME280_humidity;BME280_pressure;Samples;Min_cycle;Max_cycle;Signal;HPM_P1;HPM_P2
2021/06/16 00:02:21;;;;;;;8.00;6.05;;;20.30;98.80;;;;;;5063430;28;20102;-74
2021/06/16 00:04:47;;;;;;;9.30;6.22;;;20.40;98.80;;;;;;5051713;28;20036;-74
2021/06/16 00:07:13;;;;;;;8.40;5.72;;;20.40;98.60;;;;;;5050240;28;20033;-74
2021/06/16 00:09:39;;;;;;;9.27;6.40;;;20.40;98.60;;;;;;5055397;28;20027;-74
2021/06/16 00:12:06;;;;;;;11.30;6.78;;;20.40;98.80;;;;;;5061245;28;20033;-74
2021/06/16 00:14:31;;;;;;;8.68;6.00;;;20.30;98.80;;;;;;5049625;28;20024;-73
2021/06/16 00:16:57;;;;;;;9.55;6.65;;;20.30;98.80;;;;;;5049213;28;116016;-73
2021/06/16 00:19:23;;;;;;;10.07;5.63;;;20.20;99.10;;;;;;5049268;28;20033;-74
2021/06/16 00:21:49;;;;;;;8.13;6.18;;;20.30;98.90;;;;;;5052093;28;20104;-74
2021/06/16 00:24:18;;;;;;;9.05;6.38;;;20.30;99.10;;;;;;5050653;28;20029;-73
2021/06/16 00:26:44;;;;;;;12.20;7.03;;;20.30;98.90;;;;;;5054959;28;20474;-74
2021/06/16 00:29:10;;;;;;;10.15;6.20;;;20.40;98.90;;;;;;5054175;28;20040;-74
2021/06/16 00:31:35;;;;;;;10.45;6.75;;;20.40;98.80;;;;;;5053912;28;20033;-74
2021/06/16 00:34:01;;;;;;;9.10;6.30;;;20.30;98.80;;;;;;5071798;28;20497;-74
2021/06/16 00:36:27;;;;;;;11.80;6.85;;;20.30;98.80;;;;;;5067911;28;20191;-73
2021/06/16 00:38:54;;;;;;;13.02;6.22;;;20.30;98.80;;;;;;5064060;28;20033;-74
2021/06/16 00:41:20;;;;;;;8.65;6.22;;;20.50;98.70;;;;;;5063862;28;20110;-74
2021/06/16 00:43:45;;;;;;;9.10;6.15;;;20.40;98.80;;;;;;5071479;28;20448;-73
2021/06/16 00:46:11;;;;;;;11.90;6.40;;;20.30;98.90;;;;;;5071260;28;20052;-74
2021/06/16 00:48:37;;;;;;;7.88;5.72;;;20.40;98.80;;;;;;5055954;28;20032;-74
2021/06/16 00:51:03;;;;;;;10.45;6.18;;;20.40;98.80;;;;;;5051985;28;20037;-74
2021/06/16 00:53:29;;;;;;;7.68;5.60;;;20.20;99.00;;;;;;5070318;28;20082;-74
2021/06/16 00:55:54;;;;;;;10.60;6.40;;;20.20;99.20;;;;;;5070880;28;20047;-74
2021/06/16 00:58:20;;;;;;;9.32;6.15;;;20.20;99.20;;;;;;5051669;28;20102;-73
2021/06/16 01:00:54;;;;;;;11.23;6.07;;;20.20;99.20;;;;;;5051711;28;20356;-74
2021/06/16 01:03:50;;;;;;;9.90;6.40;;;20.10;99.30;;;;;;5070706;28;20564;-73
2021/06/16 01:06:30;;;;;;;11.93;6.75;;;20.00;99.40;;;;;;5070993;28;20098;-73
2021/06/16 01:09:16;;;;;;;9.00;6.22;;;20.10;99.40;;;;;;5067239;28;20606;-73
2021/06/16 01:12:11;;;;;;;10.77;5.97;;;19.90;99.50;;;;;;5057628;28;20475;-73
2021/06/16 01:14:52;;;;;;;9.70;5.95;;;19.80;99.70;;;;;;5051110;28;20036;-73
2021/06/16 01:17:28;;;;;;;8.27;5.60;;;19.80;99.80;;;;;;5064808;28;20060;-73
2021/06/16 01:19:59;;;;;;;10.40;5.88;;;19.80;99.90;;;;;;5061264;28;20029;-73
2021/06/16 01:22:41;;;;;;;9.68;6.13;;;19.80;99.90;;;;;;5066672;28;20114;-73
2021/06/16 01:25:29;;;;;;;8.65;6.07;;;19.80;99.90;;;;;;5051355;28;20079;-73
2021/06/16 01:27:57;;;;;;;11.70;5.97;;;19.80;99.90;;;;;;5055875;28;20466;-73
2021/06/16 01:30:25;;;;;;;9.02;6.05;;;19.80;99.90;;;;;;5071089;28;20025;-73
2021/06/16 01:32:53;;;;;;;10.57;6.93;;;19.90;99.90;;;;;;5053146;28;20037;-73
2021/06/16 01:35:19;;;;;;;8.85;6.10;;;19.80;99.90;;;;;;5051214;28;20098;-73
2021/06/16 01:37:44;;;;;;;10.10;6.00;;;19.80;99.90;;;;;;5053106;28;20040;-73
2021/06/16 01:40:12;;;;;;;11.98;6.50;;;19.90;99.70;;;;;;5069126;28;20028;-74
2021/06/16 01:42:40;;;;;;;9.10;6.13;;;19.90;99.90;;;;;;5057719;28;20360;-73
2021/06/16 01:45:07;;;;;;;10.07;6.55;;;19.70;99.90;;;;;;5071351;28;20501;-74
2021/06/16 01:47:34;;;;;;;10.38;5.97;;;19.60;99.90;;;;;;5069609;28;20020;-74
2021/06/16 01:50:03;;;;;;;8.23;5.88;;;19.40;99.90;;;;;;5071313;28;20031;-73
2021/06/16 01:52:32;;;;;;;10.70;6.18;;;19.50;99.90;;;;;;5069004;28;20037;-73
2021/06/16 01:54:59;;;;;;;8.63;6.45;;;19.60;99.90;;;;;;5071258;28;20540;-73
2021/06/16 01:57:25;;;;;;;9.20;6.07;;;19.60;99.90;;;;;;5052495;28;20055;-73
2021/06/16 01:59:54;;;;;;;7.63;5.97;;;19.60;99.90;;;;;;5051156;28;20028;-73
2021/06/16 02:02:20;;;;;;;8.68;6.32;;;19.50;99.90;;;;;;5061056;28;20092;-73
2021/06/16 02:04:46;;;;;;;10.88;6.45;;;19.60;99.90;;;;;;5062642;28;20493;-73
2021/06/16 02:07:19;;;;;;;7.68;5.72;;;19.60;99.90;;;;;;5066457;28;20032;-73
2021/06/16 02:09:46;;;;;;;8.75;6.07;;;19.70;99.90;;;;;;5050875;28;20095;-73
2021/06/16 02:12:14;;;;;;;10.52;6.25;;;19.60;99.90;;;;;;5049085;28;20094;-73
2021/06/16 02:14:58;;;;;;;10.65;6.72;;;19.50;99.90;;;;;;5050432;28;20033;-73
2021/06/16 02:17:29;;;;;;;8.23;6.30;;;19.20;99.90;;;;;;5055741;28;20050;-73
2021/06/16 02:19:55;;;;;;;9.57;6.65;;;19.40;99.90;;;;;;5072522;28;20153;-74
2021/06/16 02:22:27;;;;;;;10.38;6.25;;;19.50;99.90;;;;;;5065668;28;20087;-73
2021/06/16 02:24:54;;;;;;;8.95;6.75;;;19.40;99.90;;;;;;5058784;28;20040;-73
2021/06/16 02:27:21;;;;;;;12.15;7.07;;;19.50;99.90;;;;;;5070283;28;20488;-73
2021/06/16 02:29:46;;;;;;;11.52;7.03;;;19.40;99.90;;;;;;5054494;28;20059;-73
2021/06/16 02:32:12;;;;;;;14.02;6.93;;;19.40;99.90;;;;;;5054778;28;20519;-74
2021/06/16 02:34:38;;;;;;;10.43;5.70;;;19.40;99.90;;;;;;5054335;28;20033;-74
2021/06/16 02:37:08;;;;;;;9.68;6.57;;;19.50;99.90;;;;;;5056221;28;20025;-73
2021/06/16 02:39:47;;;;;;;9.40;6.68;;;19.50;99.90;;;;;;5074253;28;20021;-73
2021/06/16 02:42:14;;;;;;;10.13;6.38;;;19.50;99.90;;;;;;5069586;28;20040;-74
2021/06/16 02:44:43;;;;;;;9.68;6.93;;;19.50;99.90;;;;;;5074020;28;20089;-72
2021/06/16 02:47:09;;;;;;;9.98;6.82;;;19.60;99.90;;;;;;5072807;28;20028;-74
2021/06/16 02:49:53;;;;;;;11.82;6.47;;;19.50;99.90;;;;;;5074057;28;20024;-73
2021/06/16 02:52:20;;;;;;;12.27;6.25;;;19.40;99.90;;;;;;5055379;28;20423;-74
2021/06/16 02:55:04;;;;;;;8.82;6.15;;;19.30;99.90;;;;;;5054471;28;20107;-74
2021/06/16 02:57:33;;;;;;;8.25;6.20;;;19.20;99.90;;;;;;5054637;28;20021;-73
2021/06/16 03:00:02;;;;;;;11.35;7.32;;;19.10;99.90;;;;;;5053858;28;20536;-73
2021/06/16 03:02:28;;;;;;;11.07;7.43;;;19.00;99.90;;;;;;5068267;28;20024;-75
2021/06/16 03:04:57;;;;;;;11.02;6.75;;;19.10;99.90;;;;;;5061656;28;20132;-73
2021/06/16 03:07:25;;;;;;;10.55;7.53;;;19.20;99.90;;;;;;5048628;28;20029;-73
2021/06/16 03:09:51;;;;;;;9.13;7.13;;;19.20;99.90;;;;;;5046183;28;20029;-73
2021/06/16 03:12:20;;;;;;;9.57;6.80;;;19.30;99.90;;;;;;5049236;28;20119;-73
2021/06/16 03:14:47;;;;;;;10.82;6.20;;;19.30;99.90;;;;;;5057978;28;20033;-74
2021/06/16 03:17:15;;;;;;;9.90;6.70;;;19.20;99.90;;;;;;5065599;28;20041;-73
2021/06/16 03:19:41;;;;;;;11.77;7.60;;;19.20;99.90;;;;;;5051528;28;20096;-73
2021/06/16 03:22:08;;;;;;;14.10;7.18;;;19.20;99.90;;;;;;5057670;28;20032;-74
2021/06/16 03:24:37;;;;;;;11.57;6.75;;;19.00;99.90;;;;;;5062375;28;20040;-74
2021/06/16 03:27:03;;;;;;;9.93;6.53;;;19.10;99.90;;;;;;5048793;28;20070;-73
2021/06/16 03:29:30;;;;;;;10.70;7.15;;;19.20;99.90;;;;;;5045841;28;20104;-73
2021/06/16 03:31:57;;;;;;;10.13;7.15;;;19.20;99.90;;;;;;5059940;28;20082;-74
2021/06/16 03:34:23;;;;;;;13.88;7.07;;;19.10;99.90;;;;;;5054429;28;20584;-73
2021/06/16 03:36:50;;;;;;;10.32;6.85;;;19.20;99.90;;;;;;5065232;28;20028;-74
2021/06/16 03:39:16;;;;;;;14.43;7.43;;;19.20;99.90;;;;;;5053219;28;20167;-74
2021/06/16 03:41:42;;;;;;;16.88;7.18;;;19.20;99.90;;;;;;5045525;28;20390;-73
2021/06/16 03:44:10;;;;;;;10.98;6.38;;;19.20;99.90;;;;;;5053500;28;20036;-73
2021/06/16 03:46:39;;;;;;;12.43;7.30;;;19.20;99.90;;;;;;5055154;28;20024;-73
2021/06/16 03:49:08;;;;;;;12.43;7.32;;;19.10;99.90;;;;;;5058499;28;20064;-74
2021/06/16 03:51:35;;;;;;;13.45;6.88;;;19.30;99.90;;;;;;5065145;28;20029;-73
2021/06/16 03:54:02;;;;;;;10.63;6.57;;;19.30;99.90;;;;;;5050022;28;20029;-73
2021/06/16 03:56:28;;;;;;;13.98;6.80;;;19.20;99.90;;;;;;5059077;28;20044;-73
2021/06/16 03:58:55;;;;;;;8.27;6.40;;;19.20;99.90;;;;;;5056182;28;20020;-73
2021/06/16 04:01:21;;;;;;;10.77;7.32;;;19.30;99.90;;;;;;5062527;28;20131;-73
2021/06/16 04:03:48;;;;;;;15.10;6.85;;;19.30;99.90;;;;;;5054305;28;20049;-73
2021/06/16 04:06:15;;;;;;;10.68;7.05;;;19.20;99.90;;;;;;5054034;28;20029;-73
2021/06/16 04:08:45;;;;;;;10.05;7.47;;;19.20;99.90;;;;;;5055268;28;20020;-73
2021/06/16 04:11:14;;;;;;;9.35;6.82;;;19.20;99.90;;;;;;5044271;28;20040;-73
2021/06/16 04:13:41;;;;;;;14.25;7.03;;;19.20;99.90;;;;;;5043576;28;20021;-73
2021/06/16 04:16:08;;;;;;;11.98;6.80;;;19.20;99.90;;;;;;5048377;28;20046;-74
2021/06/16 04:18:35;;;;;;;11.88;7.88;;;19.20;99.90;;;;;;5061487;28;20075;-73
2021/06/16 04:21:01;;;;;;;10.60;6.53;;;19.40;99.90;;;;;;5063867;28;20085;-73
2021/06/16 04:23:29;;;;;;;9.77;6.45;;;19.30;99.90;;;;;;5056972;28;20032;-73
2021/06/16 04:25:55;;;;;;;8.68;7.05;;;19.20;99.90;;;;;;5061544;28;20032;-74
2021/06/16 04:28:21;;;;;;;9.45;6.38;;;19.00;99.90;;;;;;5050947;28;20498;-73
2021/06/16 04:30:46;;;;;;;12.20;6.78;;;19.10;99.90;;;;;;5064995;28;20053;-73
2021/06/16 04:33:12;;;;;;;9.55;6.90;;;19.10;99.90;;;;;;5062255;28;20025;-73
2021/06/16 04:35:38;;;;;;;11.63;7.30;;;19.10;99.90;;;;;;5045576;28;20041;-74
2021/06/16 04:38:04;;;;;;;15.35;8.40;;;19.10;99.90;;;;;;5054462;28;20014;-73
2021/06/16 04:40:29;;;;;;;11.15;8.00;;;19.30;99.90;;;;;;5044514;28;20104;-73
2021/06/16 04:42:55;;;;;;;13.90;7.40;;;19.50;99.90;;;;;;5045902;28;20410;-73
2021/06/16 04:45:21;;;;;;;10.55;7.20;;;19.60;99.90;;;;;;5050488;28;20086;-73
2021/06/16 04:47:46;;;;;;;10.68;6.85;;;19.60;99.90;;;;;;5046109;28;20025;-73
2021/06/16 04:50:14;;;;;;;11.68;7.40;;;19.70;99.90;;;;;;5044387;28;20035;-73
2021/06/16 04:52:40;;;;;;;12.20;7.53;;;19.50;99.90;;;;;;5044264;28;20033;-73
2021/06/16 04:55:10;;;;;;;9.43;6.57;;;19.40;99.90;;;;;;5063585;28;20032;-73
2021/06/16 04:57:36;;;;;;;8.93;6.15;;;19.50;99.90;;;;;;5062946;28;20028;-73
2021/06/16 05:00:07;;;;;;;10.73;7.00;;;19.60;99.90;;;;;;5044982;28;20039;-74
2021/06/16 05:02:33;;;;;;;10.98;7.93;;;19.60;99.90;;;;;;5044626;28;20025;-73
2021/06/16 05:04:59;;;;;;;10.60;7.18;;;19.80;99.90;;;;;;5051836;28;20612;-73
2021/06/16 05:07:24;;;;;;;11.77;7.05;;;19.80;99.90;;;;;;5043861;28;20033;-74
2021/06/16 05:09:50;;;;;;;10.35;6.80;;;19.90;99.90;;;;;;5062385;28;20060;-74
2021/06/16 05:12:16;;;;;;;9.32;6.90;;;19.80;99.90;;;;;;5063692;28;20036;-74
2021/06/16 05:14:41;;;;;;;12.52;7.95;;;19.90;99.90;;;;;;5052039;28;20036;-74
2021/06/16 05:17:07;;;;;;;13.20;7.57;;;19.90;99.90;;;;;;5043623;28;20090;-74
2021/06/16 05:19:33;;;;;;;11.27;6.82;;;20.10;99.90;;;;;;5043899;28;20049;-73
2021/06/16 05:22:26;;;;;;;11.70;6.82;;;20.10;99.90;;;;;;5050210;28;20465;-73
2021/06/16 05:24:52;;;;;;;14.10;7.65;;;20.10;99.90;;;;;;5059201;28;20052;-75
2021/06/16 05:27:17;;;;;;;9.77;7.43;;;20.10;99.90;;;;;;5054303;28;20078;-74
2021/06/16 05:29:44;;;;;;;11.35;7.25;;;20.10;99.90;;;;;;5044133;28;20041;-74
2021/06/16 05:32:11;;;;;;;10.18;8.43;;;20.00;99.90;;;;;;5043788;28;20071;-74
2021/06/16 05:34:37;;;;;;;9.38;7.57;;;20.00;99.90;;;;;;5044138;28;20036;-74
2021/06/16 05:37:05;;;;;;;10.98;7.50;;;20.10;99.90;;;;;;5044396;28;20029;-74
2021/06/16 05:39:32;;;;;;;9.18;6.68;;;20.20;99.90;;;;;;5044168;28;20025;-73
2021/06/16 05:41:58;;;;;;;12.60;8.85;;;20.20;99.90;;;;;;5044491;28;20070;-73
2021/06/16 05:44:23;;;;;;;10.77;8.02;;;20.30;99.90;;;;;;5068418;28;20036;-76
2021/06/16 05:46:49;;;;;;;11.48;7.90;;;20.30;99.90;;;;;;5066298;28;20529;-75
2021/06/16 05:49:15;;;;;;;11.25;7.43;;;20.40;99.90;;;;;;5064898;28;20039;-77
2021/06/16 05:51:40;;;;;;;9.57;6.97;;;20.50;99.90;;;;;;5067650;28;20032;-77
2021/06/16 05:54:10;;;;;;;11.60;7.45;;;20.60;99.90;;;;;;5053006;28;20498;-73
2021/06/16 05:56:37;;;;;;;10.98;8.15;;;20.70;99.90;;;;;;5047331;28;20033;-75
2021/06/16 05:59:03;;;;;;;9.93;7.38;;;20.80;99.90;;;;;;5047284;28;20041;-74
2021/06/16 06:01:30;;;;;;;10.80;7.72;;;20.80;99.90;;;;;;5046669;28;20273;-74
2021/06/16 06:03:56;;;;;;;11.50;7.55;;;20.70;99.90;;;;;;5046681;28;20391;-74
2021/06/16 06:06:21;;;;;;;11.93;8.10;;;20.80;99.90;;;;;;5046571;28;20025;-74
2021/06/16 06:08:47;;;;;;;10.50;7.85;;;20.80;99.90;;;;;;5046805;28;20029;-74
2021/06/16 06:11:13;;;;;;;14.60;7.82;;;20.80;99.90;;;;;;5044902;28;20025;-75
2021/06/16 06:13:39;;;;;;;10.20;8.57;;;20.90;99.90;;;;;;5046052;28;20029;-74
2021/06/16 06:16:05;;;;;;;12.38;8.60;;;20.90;99.90;;;;;;5045482;28;20115;-74
2021/06/16 06:18:31;;;;;;;11.75;9.23;;;21.00;99.90;;;;;;5044945;28;20045;-74
2021/06/16 06:20:56;;;;;;;13.20;8.90;;;21.10;99.90;;;;;;5045549;28;20412;-75
2021/06/16 06:23:22;;;;;;;12.15;8.63;;;21.30;99.90;;;;;;5045346;28;20036;-74
2021/06/16 06:25:49;;;;;;;10.35;7.50;;;21.40;99.90;;;;;;5045449;28;20759;-74
2021/06/16 06:28:16;;;;;;;10.73;7.82;;;21.40;99.90;;;;;;5045341;28;20051;-75
2021/06/16 06:30:44;;;;;;;10.93;8.23;;;21.50;99.90;;;;;;5045891;28;20021;-74
2021/06/16 06:33:10;;;;;;;11.98;8.63;;;21.60;99.90;;;;;;5046148;28;20029;-74
2021/06/16 06:35:36;;;;;;;14.55;8.20;;;21.60;99.90;;;;;;5046660;28;20021;-73
2021/06/16 06:38:01;;;;;;;18.55;8.02;;;21.60;99.90;;;;;;5056027;28;20033;-74
2021/06/16 06:40:27;;;;;;;12.80;8.30;;;21.70;99.90;;;;;;5065699;28;20020;-74
2021/06/16 06:42:53;;;;;;;11.95;7.78;;;21.80;99.90;;;;;;5066212;28;20063;-74
2021/06/16 06:45:19;;;;;;;11.38;8.57;;;21.80;99.90;;;;;;5066208;28;20033;-73
2021/06/16 06:47:45;;;;;;;12.38;8.10;;;21.90;99.20;;;;;;5061562;28;20345;-73
2021/06/16 06:50:14;;;;;;;14.43;8.27;;;22.10;99.50;;;;;;5046268;28;20037;-74
2021/06/16 06:52:41;;;;;;;10.80;7.95;;;22.20;99.80;;;;;;5046406;28;20557;-74
2021/06/16 06:55:08;;;;;;;13.95;7.65;;;22.10;99.90;;;;;;5045993;28;20063;-74
2021/06/16 06:57:34;;;;;;;12.98;8.82;;;22.20;99.50;;;;;;5045661;28;20036;-74
2021/06/16 06:59:59;;;;;;;13.88;8.52;;;22.30;99.00;;;;;;5065676;28;20024;-73
2021/06/16 07:02:25;;;;;;;12.77;7.47;;;22.50;99.00;;;;;;5065531;28;20039;-73
2021/06/16 07:04:51;;;;;;;13.10;8.15;;;22.70;98.90;;;;;;5065640;28;20558;-73
2021/06/16 07:07:17;;;;;;;10.82;7.90;;;22.90;98.60;;;;;;5065690;28;20033;-72
2021/06/16 07:09:46;;;;;;;13.52;8.15;;;23.10;98.20;;;;;;5056427;28;20024;-73
2021/06/16 07:12:13;;;;;;;11.10;7.72;;;23.30;97.90;;;;;;5065302;28;20024;-74
2021/06/16 07:14:39;;;;;;;10.82;7.53;;;23.50;97.80;;;;;;5065600;28;20534;-74
2021/06/16 07:17:08;;;;;;;11.25;7.68;;;23.70;96.90;;;;;;5065969;28;20726;-74
2021/06/16 07:19:34;;;;;;;11.25;7.65;;;23.90;97.30;;;;;;5064484;28;20669;-75
2021/06/16 07:22:00;;;;;;;12.88;7.95;;;24.00;96.60;;;;;;5047311;28;20037;-74
2021/06/16 07:24:25;;;;;;;19.35;7.85;;;23.90;96.50;;;;;;5045729;28;20033;-75
2021/06/16 07:26:51;;;;;;;11.82;7.93;;;23.80;96.90;;;;;;5045903;28;20080;-74
2021/06/16 07:29:17;;;;;;;11.43;8.25;;;24.20;96.90;;;;;;5046062;28;20083;-74
2021/06/16 07:31:43;;;;;;;12.45;7.65;;;24.50;96.90;;;;;;5043962;28;20025;-75
2021/06/16 07:34:09;;;;;;;11.07;7.55;;;25.20;95.90;;;;;;5041922;28;20033;-74
2021/06/16 07:36:35;;;;;;;9.27;7.13;;;25.20;95.10;;;;;;5043145;28;20481;-74
2021/06/16 07:39:00;;;;;;;10.32;7.40;;;25.20;95.10;;;;;;5048815;28;20029;-74
2021/06/16 07:41:26;;;;;;;13.20;7.43;;;25.30;95.40;;;;;;5057264;28;20029;-74
2021/06/16 07:43:52;;;;;;;11.80;7.47;;;25.50;94.90;;;;;;5043132;28;20056;-75
2021/06/16 07:46:18;;;;;;;12.98;7.88;;;25.20;95.50;;;;;;5043721;28;20027;-74
2021/06/16 07:48:43;;;;;;;9.60;6.95;;;25.30;95.10;;;;;;5042205;28;20430;-75
2021/06/16 07:51:09;;;;;;;12.63;7.32;;;25.50;95.00;;;;;;5043743;28;20036;-75
2021/06/16 07:53:35;;;;;;;14.13;7.43;;;25.20;95.20;;;;;;5044967;28;20096;-75
2021/06/16 07:56:01;;;;;;;10.27;7.57;;;25.00;94.90;;;;;;5044748;28;20058;-75
2021/06/16 07:58:27;;;;;;;11.82;7.30;;;25.00;95.70;;;;;;5058358;28;20056;-75
2021/06/16 08:00:53;;;;;;;16.30;7.90;;;24.90;95.80;;;;;;5056540;28;20100;-74
2021/06/16 08:03:19;;;;;;;9.77;8.07;;;24.60;96.10;;;;;;5046735;28;20029;-74
2021/06/16 08:05:44;;;;;;;14.20;7.90;;;24.60;96.00;;;;;;5043697;28;20052;-75
2021/06/16 08:08:10;;;;;;;9.95;7.50;;;24.50;96.10;;;;;;5044403;28;20087;-74
2021/06/16 08:10:36;;;;;;;11.60;7.95;;;24.60;96.10;;;;;;5043284;28;20375;-75
2021/06/16 08:13:01;;;;;;;14.57;8.18;;;24.30;96.20;;;;;;5044150;28;20098;-75
2021/06/16 08:15:27;;;;;;;14.07;7.60;;;24.30;96.40;;;;;;5044894;28;20039;-74
2021/06/16 08:17:53;;;;;;;13.55;7.43;;;24.40;96.20;;;;;;5045013;28;20084;-74
2021/06/16 08:20:20;;;;;;;10.40;7.97;;;24.50;95.80;;;;;;5044766;28;20456;-75
2021/06/16 08:22:45;;;;;;;23.15;7.93;;;24.30;96.20;;;;;;5044544;28;20374;-74
2021/06/16 08:25:12;;;;;;;12.13;7.55;;;24.50;96.30;;;;;;5051854;28;20044;-75
2021/06/16 08:27:42;;;;;;;9.35;6.88;;;24.50;96.20;;;;;;5064572;28;20119;-75
2021/06/16 08:30:09;;;;;;;11.38;7.35;;;24.50;95.80;;;;;;5064353;28;20052;-74
2021/06/16 08:32:35;;;;;;;14.85;8.02;;;24.50;96.10;;;;;;5065034;28;20085;-74
2021/06/16 08:35:01;;;;;;;12.15;7.38;;;24.50;96.20;;;;;;5061368;28;20024;-74
2021/06/16 08:37:27;;;;;;;9.07;6.40;;;24.50;96.30;;;;;;5044652;28;20490;-74
2021/06/16 08:39:52;;;;;;;9.43;7.35;;;24.40;96.10;;;;;;5044643;28;20542;-75
2021/06/16 08:42:18;;;;;;;14.57;7.15;;;24.40;96.50;;;;;;5044683;28;20109;-75
2021/06/16 08:44:44;;;;;;;11.68;6.80;;;24.60;95.70;;;;;;5044613;28;20037;-75
2021/06/16 08:47:09;;;;;;;12.70;7.65;;;24.70;95.70;;;;;;5044466;28;20457;-75
2021/06/16 08:49:36;;;;;;;11.30;7.70;;;24.60;95.60;;;;;;5044537;28;20057;-75
2021/06/16 08:52:03;;;;;;;12.65;7.30;;;24.80;95.70;;;;;;5044502;28;20079;-74
2021/06/16 08:54:30;;;;;;;14.25;6.78;;;24.90;95.30;;;;;;5044634;28;20077;-75
2021/06/16 08:56:56;;;;;;;10.85;7.55;;;25.20;95.80;;;;;;5044385;28;20021;-75
2021/06/16 08:59:21;;;;;;;10.80;7.40;;;25.70;95.10;;;;;;5044322;28;20422;-75
2021/06/16 09:01:47;;;;;;;10.60;7.55;;;25.70;94.00;;;;;;5044292;28;20111;-75
2021/06/16 09:04:47;;;;;;;12.23;7.30;;;25.70;94.30;;;;;;5043995;28;20056;-74
2021/06/16 09:07:20;;;;;;;12.23;6.90;;;25.90;94.00;;;;;;5044433;28;20056;-75
2021/06/16 09:09:46;;;;;;;12.48;7.28;;;25.70;93.90;;;;;;5044639;28;20032;-75
2021/06/16 09:12:17;;;;;;;10.73;6.57;;;26.30;94.30;;;;;;5048599;28;20399;-75
2021/06/16 09:14:52;;;;;;;12.20;7.15;;;26.40;94.10;;;;;;5043562;28;20032;-75
2021/06/16 09:17:20;;;;;;;10.38;7.38;;;26.70;93.50;;;;;;5043910;28;20052;-75
2021/06/16 09:19:51;;;;;;;10.80;7.68;;;26.50;93.00;;;;;;5044215;28;20017;-74
2021/06/16 09:22:17;;;;;;;12.38;7.25;;;26.60;93.70;;;;;;5048077;28;20406;-74
2021/06/16 09:24:51;;;;;;;11.65;6.60;;;26.70;93.60;;;;;;5065970;28;20039;-75
2021/06/16 09:27:41;;;;;;;11.93;7.15;;;26.50;93.30;;;;;;5068195;28;20016;-74
2021/06/16 09:30:26;;;;;;;11.98;7.38;;;26.60;93.30;;;;;;5067599;28;20028;-75
2021/06/16 09:33:07;;;;;;;11.30;7.40;;;26.60;92.60;;;;;;5053761;28;20032;-75
2021/06/16 09:35:37;;;;;;;10.98;7.35;;;26.40;92.40;;;;;;5047841;28;20064;-75
2021/06/16 09:38:07;;;;;;;13.95;7.43;;;26.70;93.00;;;;;;5053875;28;20528;-75
2021/06/16 09:40:32;;;;;;;10.07;7.70;;;27.60;92.40;;;;;;5067304;28;20036;-75
2021/06/16 09:43:03;;;;;;;12.48;7.00;;;27.60;91.80;;;;;;5054901;28;20425;-76
2021/06/16 09:45:30;;;;;;;12.20;7.10;;;27.40;92.30;;;;;;5053570;28;20047;-75
2021/06/16 09:47:55;;;;;;;15.63;6.63;;;27.30;92.50;;;;;;5064763;28;20508;-75
2021/06/16 09:50:23;;;;;;;13.18;6.47;;;27.30;92.40;;;;;;5065085;28;20024;-75
2021/06/16 09:52:50;;;;;;;10.30;6.57;;;27.50;92.10;;;;;;5065713;28;20386;-75
2021/06/16 09:55:31;;;;;;;9.55;6.15;;;27.30;92.40;;;;;;5063832;28;20529;-75
2021/06/16 09:58:05;;;;;;;11.65;6.53;;;27.30;91.90;;;;;;5046219;28;20035;-75
2021/06/16 10:00:45;;;;;;;12.60;7.22;;;27.30;92.20;;;;;;5045704;28;20048;-75
2021/06/16 10:03:12;;;;;;;9.25;6.30;;;27.70;92.70;;;;;;5046684;28;20020;-75
2021/06/16 10:06:16;;;;;;;10.35;6.65;;;27.80;91.40;;;;;;5047471;28;20037;-75
2021/06/16 10:08:47;;;;;;;9.27;6.60;;;27.80;91.30;;;;;;5047520;28;20053;-75
2021/06/16 10:11:20;;;;;;;11.27;6.68;;;27.80;91.00;;;;;;5047087;28;20028;-75
2021/06/16 10:13:49;;;;;;;;;;;27.90;91.40;;;;;;5047665;28;20025;-75
2021/06/16 10:16:16;;;;;;;10.77;6.30;;;28.20;92.10;;;;;;5046976;28;19966;-75
2021/06/16 10:18:43;;;;;;;10.32;6.78;;;28.30;91.10;;;;;;5051669;28;20045;-75
2021/06/16 10:21:11;;;;;;;12.30;7.63;;;28.70;91.40;;;;;;5047223;28;20129;-75
2021/06/16 10:23:37;;;;;;;9.50;6.22;;;28.40;90.90;;;;;;5047270;28;20040;-75
2021/06/16 10:26:07;;;;;;;15.10;6.40;;;28.80;90.90;;;;;;5046882;28;20034;-75
2021/06/16 10:28:37;;;;;;;8.57;5.45;;;29.10;90.40;;;;;;5046901;28;20029;-75
2021/06/16 10:31:06;;;;;;;9.27;5.90;;;29.20;90.60;;;;;;5047002;28;20033;-75
2021/06/16 10:33:41;;;;;;;9.73;5.38;;;29.30;90.90;;;;;;5046821;28;20056;-75
2021/06/16 10:36:15;;;;;;;10.45;6.78;;;29.20;90.10;;;;;;5046460;28;20021;-75
2021/06/16 10:39:04;;;;;;;11.50;5.68;;;29.00;90.80;;;;;;5047585;28;20100;-75
2021/06/16 10:41:45;;;;;;;8.80;5.45;;;29.20;90.40;;;;;;5046903;28;20613;-75
2021/06/16 10:44:15;;;;;;;10.88;6.15;;;29.30;90.50;;;;;;5046327;28;20112;-75
2021/06/16 10:46:56;;;;;;;14.52;6.55;;;29.40;90.50;;;;;;5046677;28;20021;-75
2021/06/16 10:49:42;;;;;;;14.70;6.63;;;29.70;90.80;;;;;;5053215;28;20028;-75
2021/06/16 10:52:15;;;;;;;10.00;6.35;;;29.80;89.70;;;;;;5050717;28;20411;-75
2021/06/16 10:54:56;;;;;;;6.85;5.18;;;29.30;90.10;;;;;;5046415;28;20022;-75
2021/06/16 10:57:22;;;;;;;7.75;5.13;;;29.40;90.30;;;;;;5046452;28;20025;-75
2021/06/16 10:59:50;;;;;;;9.48;6.10;;;29.60;90.50;;;;;;5046475;28;20040;-75
2021/06/16 11:02:17;;;;;;;8.20;5.30;;;29.60;90.50;;;;;;5046484;28;20391;-75
2021/06/16 11:04:44;;;;;;;11.05;5.78;;;29.70;90.10;;;;;;5046149;28;20120;-75
2021/06/16 11:07:29;;;;;;;14.07;6.40;;;29.50;89.60;;;;;;5044917;28;20036;-75
2021/06/16 11:10:07;;;;;;;9.30;6.60;;;29.40;90.50;;;;;;5046037;28;20479;-76
2021/06/16 11:12:40;;;;;;;9.18;5.75;;;29.50;90.30;;;;;;5045958;28;20617;-75
2021/06/16 11:15:10;;;;;;;8.68;5.45;;;29.50;90.60;;;;;;5046152;28;20025;-75
2021/06/16 11:17:36;;;;;;;8.13;5.60;;;29.80;90.30;;;;;;5046141;28;20414;-75
2021/06/16 11:20:34;;;;;;;13.05;7.22;;;29.90;90.80;;;;;;5044596;28;20035;-75
2021/06/16 11:23:02;;;;;;;8.95;5.40;;;29.60;88.70;;;;;;5011905;28;20561;-75
2021/06/16 11:25:31;;;;;;;14.10;6.25;;;29.20;90.30;;;;;;5045958;28;20029;-75
2021/06/16 11:28:15;;;;;;;12.48;5.63;;;29.50;90.40;;;;;;5062222;28;20033;-75
2021/06/16 11:30:56;;;;;;;11.93;5.63;;;29.60;90.00;;;;;;5064444;28;20169;-75
2021/06/16 11:33:23;;;;;;;12.40;6.75;;;29.80;90.50;;;;;;5043851;28;20029;-75
2021/06/16 11:35:49;;;;;;;9.18;5.80;;;30.00;90.00;;;;;;5046168;28;20025;-75
2021/06/16 11:38:40;;;;;;;15.80;6.45;;;30.20;89.60;;;;;;5044943;28;20530;-76
2021/06/16 11:41:17;;;;;;;10.88;6.10;;;30.60;88.30;;;;;;5045646;28;20026;-75
2021/06/16 11:43:44;;;;;;;6.78;5.50;;;30.50;87.70;;;;;;5045553;28;20021;-75
2021/06/16 11:46:31;;;;;;;10.35;6.05;;;30.40;87.80;;;;;;5044273;28;20048;-75
2021/06/16 11:48:59;;;;;;;13.77;5.82;;;30.50;88.30;;;;;;5051437;28;21097;-75
2021/06/16 11:51:38;;;;;;;13.45;6.40;;;30.40;88.20;;;;;;5059392;28;20127;-76
2021/06/16 11:57:07;;;;;;;8.60;5.25;;;30.50;88.30;;;;;;5060110;28;20115;-76
2021/06/16 11:59:50;;;;;;;13.18;6.13;;;30.40;88.30;;;;;;5045466;28;20021;-75
2021/06/16 12:02:22;;;;;;;12.45;5.88;;;30.70;88.10;;;;;;5044290;28;20520;-75
2021/06/16 12:04:54;;;;;;;8.07;5.33;;;30.60;88.00;;;;;;5045681;28;20037;-75
2021/06/16 12:07:42;;;;;;;7.75;5.70;;;30.50;88.10;;;;;;5050397;28;20016;-76
2021/06/16 12:10:10;;;;;;;7.47;5.63;;;30.10;88.60;;;;;;5044942;28;20647;-76
2021/06/16 12:12:48;;;;;;;13.35;5.50;;;30.20;88.20;;;;;;5046150;28;20112;-77
2021/06/16 12:15:16;;;;;;;13.23;5.82;;;30.20;88.30;;;;;;5044565;28;20017;-77
2021/06/16 12:18:04;;;;;;;11.45;5.93;;;30.30;88.50;;;;;;5044427;28;20052;-77
2021/06/16 12:20:37;;;;;;;10.48;6.07;;;30.20;87.90;;;;;;5044187;28;20029;-77
2021/06/16 12:23:22;;;;;;;11.02;6.22;;;30.20;88.20;;;;;;5044093;28;20024;-77
2021/06/16 12:25:49;;;;;;;9.52;6.18;;;29.90;88.30;;;;;;5043834;28;20614;-76
2021/06/16 12:28:16;;;;;;;9.60;5.35;;;30.10;88.70;;;;;;5044746;28;20493;-77
2021/06/16 12:30:45;;;;;;;20.17;6.55;;;30.10;89.10;;;;;;5059683;28;20034;-77
2021/06/16 12:33:19;;;;;;;17.08;7.20;;;30.10;87.10;;;;;;5063139;28;20653;-77
2021/06/16 12:36:07;;;;;;;23.58;6.40;;;30.20;87.30;;;;;;5044221;28;20021;-77
2021/06/16 12:38:48;;;;;;;10.73;6.28;;;30.00;87.80;;;;;;5043835;28;20079;-77
2021/06/16 12:41:25;;;;;;;8.95;6.32;;;29.80;86.80;;;;;;5044461;28;20033;-77
2021/06/16 12:43:52;;;;;;;12.00;6.25;;;29.90;87.40;;;;;;5043826;28;20021;-77
2021/06/16 12:46:18;;;;;;;9.07;5.60;;;29.50;87.50;;;;;;5043920;28;20036;-77
2021/06/16 12:48:43;;;;;;;8.95;6.07;;;29.40;87.70;;;;;;5044113;28;20361;-76
2021/06/16 12:51:09;;;;;;;10.23;5.90;;;30.10;88.10;;;;;;5043764;28;20104;-77
2021/06/16 12:53:38;;;;;;;10.18;6.25;;;30.10;87.10;;;;;;5044015;28;20405;-77
2021/06/16 12:56:05;;;;;;;11.02;6.05;;;30.10;87.00;;;;;;5039795;28;20040;-77